sensor_id;sensor_type;location;lat;lon;timestamp;P1;durP1;ratioP1;P2;durP2;ratioP2
33453;SDS011;39400;49.744;7.012;2023-05-16T06:06:26;5.88;;;2.90;;
33453;SDS011;39400;49.744;7.012;2023-05-16T06:08:51;4.68;;;3.30;;
33453;SDS011;39400;49.744;7.012;2023-05-16T06:11:17;7.85;;;3.22;;
33453;SDS011;39400;49.744;7.012;2023-05-16T06:13:42;5.30;;;3.40;;
33453;SDS011;39400;49.744;7.012;2023-05-16T06:16:08;7.70;;;4.03;;
33453;SDS011;39400;49.744;7.012;2023-05-16T06:18:33;5.50;;;3.75;;
33453;SDS011;39400;49.744;7.012;2023-05-16T06:20:58;6.80;;;4.13;;
33453;SDS011;39400;49.744;7.012;2023-05-16T06:23:24;6.53;;;4.57;;
33453;SDS011;39400;49.744;7.012;2023-05-16T06:25:49;5.63;;;3.95;;
33453;SDS011;39400;49.744;7.012;2023-05-16T06:28:14;6.57;;;4.45;;
33453;SDS011;39400;49.744;7.012;2023-05-16T06:30:40;7.53;;;4.50;;
33453;SDS011;39400;49.744;7.012;2023-05-16T06:33:05;11.32;;;6.25;;
33453;SDS011;39400;49.744;7.012;2023-05-16T06:35:30;7.32;;;4.85;;
33453;SDS011;39400;49.744;7.012;2023-05-16T06:37:56;7.00;;;5.32;;
33453;SDS011;39400;49.744;7.012;2023-05-16T06:40:21;7.35;;;5.03;;
33453;SDS011;39400;49.744;7.012;2023-05-16T06:42:46;10.25;;;4.80;;
33453;SDS011;39400;49.744;7.012;2023-05-16T06:45:11;7.30;;;4.68;;
33453;SDS011;39400;49.744;7.012;2023-05-16T06:47:37;6.50;;;4.47;;
33453;SDS011;39400;49.744;7.012;2023-05-16T06:50:02;10.55;;;4.75;;
33453;SDS011;39400;49.744;7.012;2023-05-16T06:52:29;6.00;;;4.38;;
33453;SDS011;39400;49.744;7.012;2023-05-16T06:54:54;7.22;;;4.55;;
33453;SDS011;39400;49.744;7.012;2023-05-16T06:57:19;6.30;;;4.40;;
33453;SDS011;39400;49.744;7.012;2023-05-16T06:59:45;9.48;;;4.78;;
33453;SDS011;39400;49.744;7.012;2023-05-16T07:02:10;7.40;;;5.22;;
33453;SDS011;39400;49.744;7.012;2023-05-16T07:04:35;7.75;;;4.95;;
33453;SDS011;39400;49.744;7.012;2023-05-16T07:07:01;8.07;;;4.60;;
33453;SDS011;39400;49.744;7.012;2023-05-16T07:09:26;8.23;;;5.25;;
33453;SDS011;39400;49.744;7.012;2023-05-16T07:11:51;8.43;;;4.97;;
33453;SDS011;39400;49.744;7.012;2023-05-16T07:14:16;11.68;;;8.18;;
33453;SDS011;39400;49.744;7.012;2023-05-16T07:16:42;9.27;;;6.85;;
33453;SDS011;39400;49.744;7.012;2023-05-16T07:19:07;11.85;;;7.50;;
33453;SDS011;39400;49.744;7.012;2023-05-16T07:21:32;10.02;;;6.47;;
33453;SDS011;39400;49.744;7.012;2023-05-16T07:23:58;11.27;;;7.00;;
33453;SDS011;39400;49.744;7.012;2023-05-16T07:26:23;10.50;;;6.90;;
33453;SDS011;39400;49.744;7.012;2023-05-16T07:28:49;12.05;;;8.88;;
33453;SDS011;39400;49.744;7.012;2023-05-16T07:31:14;13.25;;;8.95;;
33453;SDS011;39400;49.744;7.012;2023-05-16T07:33:40;19.38;;;8.85;;
33453;SDS011;39400;49.744;7.012;2023-05-16T07:36:05;10.68;;;7.72;;
33453;SDS011;39400;49.744;7.012;2023-05-16T07:38:31;12.70;;;8.98;;
33453;SDS011;39400;49.744;7.012;2023-05-16T07:40:56;12.90;;;8.95;;
33453;SDS011;39400;49.744;7.012;2023-05-16T07:43:21;12.55;;;7.82;;
33453;SDS011;39400;49.744;7.012;2023-05-16T07:45:47;20.67;;;11.52;;
33453;SDS011;39400;49.744;7.012;2023-05-16T07:48:12;18.02;;;11.00;;
33453;SDS011;39400;49.744;7.012;2023-05-16T07:50:37;17.98;;;11.68;;
33453;SDS011;39400;49.744;7.012;2023-05-16T07:53:03;18.73;;;13.00;;
33453;SDS011;39400;49.744;7.012;2023-05-16T07:55:28;22.92;;;13.15;;
33453;SDS011;39400;49.744;7.012;2023-05-16T07:57:53;27.50;;;14.95;;
33453;SDS011;39400;49.744;7.012;2023-05-16T08:00:19;31.45;;;14.40;;
33453;SDS011;39400;49.744;7.012;2023-05-16T08:02:44;24.88;;;15.10;;
33453;SDS011;39400;49.744;7.012;2023-05-16T08:05:10;26.15;;;14.73;;
33453;SDS011;39400;49.744;7.012;2023-05-16T08:07:35;37.45;;;17.02;;
33453;SDS011;39400;49.744;7.012;2023-05-16T08:10:00;23.63;;;14.98;;
33453;SDS011;39400;49.744;7.012;2023-05-16T08:12:25;24.25;;;14.82;;
33453;SDS011;39400;49.744;7.012;2023-05-16T08:14:51;27.85;;;13.93;;
33453;SDS011;39400;49.744;7.012;2023-05-16T08:17:16;20.35;;;14.05;;
33453;SDS011;39400;49.744;7.012;2023-05-16T08:19:41;20.90;;;15.93;;
33453;SDS011;39400;49.744;7.012;2023-05-16T08:22:07;21.58;;;13.70;;
33453;SDS011;39400;49.744;7.012;2023-05-16T08:24:33;28.10;;;14.50;;
33453;SDS011;39400;49.744;7.012;2023-05-16T08:26:59;20.02;;;12.80;;
33453;SDS011;39400;49.744;7.012;2023-05-16T08:29:24;30.55;;;16.75;;
33453;SDS011;39400;49.744;7.012;2023-05-16T08:31:49;17.10;;;11.80;;
33453;SDS011;39400;49.744;7.012;2023-05-16T08:34:15;21.48;;;13.32;;
33453;SDS011;39400;49.744;7.012;2023-05-16T08:36:40;19.80;;;13.40;;
33453;SDS011;39400;49.744;7.012;2023-05-16T08:39:05;23.55;;;12.90;;
33453;SDS011;39400;49.744;7.012;2023-05-16T08:41:31;22.60;;;11.85;;
33453;SDS011;39400;49.744;7.012;2023-05-16T08:43:57;20.20;;;12.45;;
33453;SDS011;39400;49.744;7.012;2023-05-16T08:46:22;25.08;;;16.00;;
33453;SDS011;39400;49.744;7.012;2023-05-16T08:48:51;27.17;;;13.07;;
33453;SDS011;39400;49.744;7.012;2023-05-16T08:51:18;22.83;;;12.20;;
33453;SDS011;39400;49.744;7.012;2023-05-16T08:53:45;20.38;;;11.55;;
33453;SDS011;39400;49.744;7.012;2023-05-16T08:56:33;23.15;;;13.73;;
33453;SDS011;39400;49.744;7.012;2023-05-16T08:58:59;21.33;;;13.70;;
33453;SDS011;39400;49.744;7.012;2023-05-16T09:01:26;27.85;;;16.27;;
33453;SDS011;39400;49.744;7.012;2023-05-16T09:03:52;22.92;;;15.50;;
33453;SDS011;39400;49.744;7.012;2023-05-16T09:06:17;27.35;;;15.25;;
33453;SDS011;39400;49.744;7.012;2023-05-16T09:08:43;23.92;;;14.30;;
33453;SDS011;39400;49.744;7.012;2023-05-16T09:11:08;28.13;;;14.38;;
33453;SDS011;39400;49.744;7.012;2023-05-16T09:13:34;23.02;;;12.98;;
33453;SDS011;39400;49.744;7.012;2023-05-16T09:16:13;38.15;;;16.63;;
33453;SDS011;39400;49.744;7.012;2023-05-16T09:18:43;22.05;;;11.50;;
33453;SDS011;39400;49.744;7.012;2023-05-16T09:21:10;19.70;;;11.77;;
33453;SDS011;39400;49.744;7.012;2023-05-16T09:23:36;22.88;;;13.02;;
33453;SDS011;39400;49.744;7.012;2023-05-16T09:26:02;22.05;;;12.07;;
33453;SDS011;39400;49.744;7.012;2023-05-16T09:28:29;16.50;;;8.73;;
33453;SDS011;39400;49.744;7.012;2023-05-16T09:30:55;14.43;;;8.40;;
33453;SDS011;39400;49.744;7.012;2023-05-16T09:33:23;16.23;;;9.15;;
33453;SDS011;39400;49.744;7.012;2023-05-16T09:35:55;19.58;;;9.20;;
33453;SDS011;39400;49.744;7.012;2023-05-16T09:38:21;10.65;;;6.15;;
33453;SDS011;39400;49.744;7.012;2023-05-16T09:40:46;20.02;;;8.18;;
33453;SDS011;39400;49.744;7.012;2023-05-16T09:43:13;14.95;;;4.72;;
33453;SDS011;39400;49.744;7.012;2023-05-16T09:45:40;14.95;;;4.90;;
33453;SDS011;39400;49.744;7.012;2023-05-16T09:48:10;13.05;;;4.57;;
33453;SDS011;39400;49.744;7.012;2023-05-16T09:50:36;17.00;;;3.80;;
33453;SDS011;39400;49.744;7.012;2023-05-16T09:53:02;7.28;;;3.17;;
33453;SDS011;39400;49.744;7.012;2023-05-16T09:55:28;15.07;;;4.63;;
33453;SDS011;39400;49.744;7.012;2023-05-16T09:57:55;11.05;;;4.10;;
33453;SDS011;39400;49.744;7.012;2023-05-16T10:00:20;8.57;;;4.47;;
33453;SDS011;39400;49.744;7.012;2023-05-16T10:02:46;20.38;;;5.32;;
33453;SDS011;39400;49.744;7.012;2023-05-16T10:05:13;10.73;;;5.10;;
33453;SDS011;39400;49.744;7.012;2023-05-16T10:07:38;15.02;;;5.82;;
33453;SDS011;39400;49.744;7.012;2023-05-16T10:10:06;13.52;;;5.28;;
33453;SDS011;39400;49.744;7.012;2023-05-16T10:12:33;14.18;;;4.03;;
33453;SDS011;39400;49.744;7.012;2023-05-16T10:15:01;11.43;;;4.68;;
33453;SDS011;39400;49.744;7.012;2023-05-16T10:17:28;13.18;;;4.88;;
33453;SDS011;39400;49.744;7.012;2023-05-16T10:19:55;14.68;;;5.18;;
33453;SDS011;39400;49.744;7.012;2023-05-16T10:22:21;10.68;;;3.80;;
33453;SDS011;39400;49.744;7.012;2023-05-16T10:24:52;10.93;;;3.85;;
33453;SDS011;39400;49.744;7.012;2023-05-16T10:27:19;8.13;;;3.45;;
33453;SDS011;39400;49.744;7.012;2023-05-16T10:29:45;11.60;;;3.88;;
33453;SDS011;39400;49.744;7.012;2023-05-16T10:32:10;8.48;;;3.25;;
33453;SDS011;39400;49.744;7.012;2023-05-16T10:34:37;12.02;;;3.03;;
33453;SDS011;39400;49.744;7.012;2023-05-16T10:37:03;14.18;;;4.00;;
33453;SDS011;39400;49.744;7.012;2023-05-16T10:39:29;9.52;;;2.50;;
33453;SDS011;39400;49.744;7.012;2023-05-16T10:41:56;23.25;;;3.60;;
33453;SDS011;39400;49.744;7.012;2023-05-16T10:44:21;6.97;;;2.53;;
33453;SDS011;39400;49.744;7.012;2023-05-16T10:46:47;5.97;;;2.10;;
33453;SDS011;39400;49.744;7.012;2023-05-16T10:49:19;11.88;;;2.80;;
33453;SDS011;39400;49.744;7.012;2023-05-16T10:52:30;9.30;;;3.13;;
33453;SDS011;39400;49.744;7.012;2023-05-16T10:54:41;10.27;;;3.35;;
33453;SDS011;39400;49.744;7.012;2023-05-16T10:57:11;8.32;;;2.22;;
33453;SDS011;39400;49.744;7.012;2023-05-16T10:59:44;9.23;;;3.13;;
33453;SDS011;39400;49.744;7.012;2023-05-16T11:05:05;13.43;;;2.97;;
33453;SDS011;39400;49.744;7.012;2023-05-16T11:07:32;9.45;;;2.47;;
33453;SDS011;39400;49.744;7.012;2023-05-16T11:10:06;18.33;;;2.63;;
33453;SDS011;39400;49.744;7.012;2023-05-16T11:12:37;10.90;;;2.33;;
33453;SDS011;39400;49.744;7.012;2023-05-16T11:15:19;6.75;;;2.00;;
33453;SDS011;39400;49.744;7.012;2023-05-16T11:17:49;7.25;;;2.53;;
33453;SDS011;39400;49.744;7.012;2023-05-16T11:20:31;6.78;;;2.50;;
33453;SDS011;39400;49.744;7.012;2023-05-16T11:25:42;9.38;;;2.33;;
33453;SDS011;39400;49.744;7.012;2023-05-16T11:28:09;15.77;;;2.53;;
33453;SDS011;39400;49.744;7.012;2023-05-16T11:30:40;6.45;;;2.00;;
33453;SDS011;39400;49.744;7.012;2023-05-16T11:33:07;6.00;;;1.85;;
33453;SDS011;39400;49.744;7.012;2023-05-16T11:35:32;11.82;;;2.45;;
33453;SDS011;39400;49.744;7.012;2023-05-16T11:37:58;13.38;;;2.20;;
33453;SDS011;39400;49.744;7.012;2023-05-16T11:40:23;13.73;;;2.95;;
33453;SDS011;39400;49.744;7.012;2023-05-16T11:42:48;6.40;;;2.38;;
33453;SDS011;39400;49.744;7.012;2023-05-16T11:45:14;6.18;;;2.28;;
33453;SDS011;39400;49.744;7.012;2023-05-16T11:47:44;13.35;;;2.42;;
33453;SDS011;39400;49.744;7.012;2023-05-16T11:50:11;6.43;;;2.33;;
33453;SDS011;39400;49.744;7.012;2023-05-16T11:52:38;10.57;;;2.67;;
33453;SDS011;39400;49.744;7.012;2023-05-16T11:55:04;9.10;;;2.17;;
33453;SDS011;39400;49.744;7.012;2023-05-16T11:57:31;10.00;;;3.25;;
33453;SDS011;39400;49.744;7.012;2023-05-16T12:00:18;10.85;;;2.58;;
33453;SDS011;39400;49.744;7.012;2023-05-16T12:02:47;11.85;;;2.28;;
33453;SDS011;39400;49.744;7.012;2023-05-16T12:05:13;11.35;;;2.95;;
33453;SDS011;39400;49.744;7.012;2023-05-16T12:07:39;10.63;;;2.85;;
33453;SDS011;39400;49.744;7.012;2023-05-16T12:10:11;11.70;;;4.22;;
33453;SDS011;39400;49.744;7.012;2023-05-16T12:12:38;4.05;;;2.22;;
33453;SDS011;39400;49.744;7.012;2023-05-16T12:15:05;8.93;;;2.15;;
33453;SDS011;39400;49.744;7.012;2023-05-16T12:17:32;9.85;;;3.08;;
33453;SDS011;39400;49.744;7.012;2023-05-16T12:20:01;15.18;;;2.65;;
33453;SDS011;39400;49.744;7.012;2023-05-16T12:22:28;7.90;;;2.30;;
33453;SDS011;39400;49.744;7.012;2023-05-16T12:24:53;8.15;;;2.75;;
33453;SDS011;39400;49.744;7.012;2023-05-16T12:27:23;7.65;;;1.75;;
33453;SDS011;39400;49.744;7.012;2023-05-16T12:29:49;4.95;;;2.05;;
33453;SDS011;39400;49.744;7.012;2023-05-16T12:32:18;11.65;;;2.53;;
33453;SDS011;39400;49.744;7.012;2023-05-16T12:34:50;7.38;;;2.03;;
33453;SDS011;39400;49.744;7.012;2023-05-16T12:37:17;6.53;;;2.53;;
33453;SDS011;39400;49.744;7.012;2023-05-16T12:39:43;7.18;;;2.25;;
33453;SDS011;39400;49.744;7.012;2023-05-16T12:42:08;7.05;;;1.40;;
33453;SDS011;39400;49.744;7.012;2023-05-16T12:44:35;6.97;;;1.98;;
33453;SDS011;39400;49.744;7.012;2023-05-16T12:47:01;6.13;;;1.75;;
33453;SDS011;39400;49.744;7.012;2023-05-16T12:49:26;5.50;;;1.45;;
33453;SDS011;39400;49.744;7.012;2023-05-16T12:51:53;9.65;;;2.17;;
33453;SDS011;39400;49.744;7.012;2023-05-16T12:54:20;7.50;;;2.00;;
33453;SDS011;39400;49.744;7.012;2023-05-16T12:56:45;7.15;;;2.20;;
33453;SDS011;39400;49.744;7.012;2023-05-16T12:59:10;7.20;;;2.38;;
33453;SDS011;39400;49.744;7.012;2023-05-16T13:01:36;10.10;;;2.03;;
33453;SDS011;39400;49.744;7.012;2023-05-16T13:04:02;10.35;;;1.50;;
33453;SDS011;39400;49.744;7.012;2023-05-16T13:06:28;5.97;;;1.70;;
33453;SDS011;39400;49.744;7.012;2023-05-16T13:08:53;6.63;;;1.63;;
33453;SDS011;39400;49.744;7.012;2023-05-16T13:11:19;6.50;;;1.27;;
33453;SDS011;39400;49.744;7.012;2023-05-16T13:13:44;5.70;;;1.63;;
33453;SDS011;39400;49.744;7.012;2023-05-16T13:16:09;8.02;;;1.48;;
33453;SDS011;39400;49.744;7.012;2023-05-16T13:18:35;6.75;;;1.25;;
33453;SDS011;39400;49.744;7.012;2023-05-16T13:21:00;4.35;;;1.30;;
33453;SDS011;39400;49.744;7.012;2023-05-16T13:23:26;11.10;;;2.10;;
33453;SDS011;39400;49.744;7.012;2023-05-16T13:25:51;6.22;;;1.80;;
33453;SDS011;39400;49.744;7.012;2023-05-16T13:28:16;4.43;;;1.40;;
33453;SDS011;39400;49.744;7.012;2023-05-16T13:30:41;7.53;;;1.70;;
33453;SDS011;39400;49.744;7.012;2023-05-16T13:33:07;6.88;;;2.03;;
33453;SDS011;39400;49.744;7.012;2023-05-16T13:35:32;4.47;;;1.15;;
33453;SDS011;39400;49.744;7.012;2023-05-16T13:37:58;5.55;;;1.20;;
33453;SDS011;39400;49.744;7.012;2023-05-16T13:40:23;6.97;;;1.48;;
33453;SDS011;39400;49.744;7.012;2023-05-16T13:42:48;4.22;;;1.15;;
33453;SDS011;39400;49.744;7.012;2023-05-16T13:45:14;5.20;;;1.50;;
33453;SDS011;39400;49.744;7.012;2023-05-16T13:47:39;7.35;;;1.52;;
33453;SDS011;39400;49.744;7.012;2023-05-16T13:50:05;12.02;;;1.95;;
33453;SDS011;39400;49.744;7.012;2023-05-16T13:52:30;12.88;;;1.92;;
33453;SDS011;39400;49.744;7.012;2023-05-16T13:54:56;10.38;;;1.95;;
33453;SDS011;39400;49.744;7.012;2023-05-16T13:57:21;7.55;;;1.42;;
33453;SDS011;39400;49.744;7.012;2023-05-16T13:59:46;5.93;;;2.05;;
33453;SDS011;39400;49.744;7.012;2023-05-16T14:02:12;4.72;;;1.67;;
33453;SDS011;39400;49.744;7.012;2023-05-16T14:04:37;10.23;;;2.38;;
33453;SDS011;39400;49.744;7.012;2023-05-16T14:07:02;7.05;;;1.60;;
33453;SDS011;39400;49.744;7.012;2023-05-16T14:09:28;6.97;;;1.95;;
33453;SDS011;39400;49.744;7.012;2023-05-16T14:11:53;13.30;;;2.58;;
33453;SDS011;39400;49.744;7.012;2023-05-16T14:14:18;4.55;;;1.30;;
33453;SDS011;39400;49.744;7.012;2023-05-16T14:16:44;9.07;;;1.75;;
33453;SDS011;39400;49.744;7.012;2023-05-16T14:19:09;7.50;;;1.95;;
33453;SDS011;39400;49.744;7.012;2023-05-16T14:21:34;5.82;;;1.58;;
33453;SDS011;39400;49.744;7.012;2023-05-16T14:24:00;8.50;;;2.22;;
33453;SDS011;39400;49.744;7.012;2023-05-16T14:26:25;6.93;;;2.17;;
33453;SDS011;39400;49.744;7.012;2023-05-16T14:28:50;5.95;;;2.20;;
33453;SDS011;39400;49.744;7.012;2023-05-16T14:34:44;7.70;;;2.58;;
33453;SDS011;39400;49.744;7.012;2023-05-16T14:37:09;6.10;;;2.13;;
33453;SDS011;39400;49.744;7.012;2023-05-16T14:39:34;12.30;;;2.88;;
33453;SDS011;39400;49.744;7.012;2023-05-16T14:42:00;6.28;;;1.77;;
33453;SDS011;39400;49.744;7.012;2023-05-16T14:44:25;11.02;;;2.40;;
33453;SDS011;39400;49.744;7.012;2023-05-16T14:46:50;9.63;;;1.48;;
33453;SDS011;39400;49.744;7.012;2023-05-16T14:49:16;9.20;;;1.70;;
33453;SDS011;39400;49.744;7.012;2023-05-16T14:51:41;7.65;;;1.45;;
33453;SDS011;39400;49.744;7.012;2023-05-16T14:54:06;13.40;;;2.65;;
33453;SDS011;39400;49.744;7.012;2023-05-16T14:56:32;8.00;;;1.92;;
33453;SDS011;39400;49.744;7.012;2023-05-16T14:58:57;8.93;;;1.73;;
33453;SDS011;39400;49.744;7.012;2023-05-16T15:01:22;11.10;;;3.08;;
33453;SDS011;39400;49.744;7.012;2023-05-16T15:03:48;7.30;;;2.20;;
33453;SDS011;39400;49.744;7.012;2023-05-16T15:06:13;6.85;;;1.77;;
33453;SDS011;39400;49.744;7.012;2023-05-16T15:08:38;5.07;;;1.35;;
33453;SDS011;39400;49.744;7.012;2023-05-16T15:11:03;6.15;;;1.65;;
33453;SDS011;39400;49.744;7.012;2023-05-16T15:13:29;7.00;;;1.40;;
33453;SDS011;39400;49.744;7.012;2023-05-16T15:15:54;7.30;;;1.60;;
33453;SDS011;39400;49.744;7.012;2023-05-16T15:18:20;13.60;;;2.70;;
33453;SDS011;39400;49.744;7.012;2023-05-16T15:20:45;4.80;;;1.73;;
33453;SDS011;39400;49.744;7.012;2023-05-16T15:23:10;13.13;;;2.20;;
33453;SDS011;39400;49.744;7.012;2023-05-16T15:25:36;7.07;;;2.75;;
33453;SDS011;39400;49.744;7.012;2023-05-16T15:28:01;9.52;;;1.90;;
33453;SDS011;39400;49.744;7.012;2023-05-16T15:30:26;15.45;;;2.05;;
33453;SDS011;39400;49.744;7.012;2023-05-16T15:32:51;10.63;;;2.58;;
33453;SDS011;39400;49.744;7.012;2023-05-16T15:35:17;8.60;;;2.20;;
33453;SDS011;39400;49.744;7.012;2023-05-16T15:37:42;13.07;;;3.83;;
33453;SDS011;39400;49.744;7.012;2023-05-16T15:40:08;11.20;;;2.95;;
33453;SDS011;39400;49.744;7.012;2023-05-16T15:42:33;11.00;;;3.38;;
33453;SDS011;39400;49.744;7.012;2023-05-16T15:44:59;11.50;;;3.30;;
33453;SDS011;39400;49.744;7.012;2023-05-16T15:47:24;14.70;;;4.28;;
33453;SDS011;39400;49.744;7.012;2023-05-16T15:49:49;6.75;;;1.90;;
33453;SDS011;39400;49.744;7.012;2023-05-16T15:52:15;8.25;;;1.70;;
33453;SDS011;39400;49.744;7.012;2023-05-16T15:54:40;6.35;;;2.05;;
33453;SDS011;39400;49.744;7.012;2023-05-16T15:57:05;6.40;;;1.40;;
33453;SDS011;39400;49.744;7.012;2023-05-16T15:59:30;2.88;;;1.23;;
33453;SDS011;39400;49.744;7.012;2023-05-16T16:01:56;6.82;;;1.90;;
33453;SDS011;39400;49.744;7.012;2023-05-16T16:04:21;6.43;;;1.65;;
33453;SDS011;39400;49.744;7.012;2023-05-16T16:06:46;5.05;;;1.63;;
33453;SDS011;39400;49.744;7.012;2023-05-16T16:09:12;9.10;;;1.40;;
33453;SDS011;39400;49.744;7.012;2023-05-16T16:11:37;6.10;;;2.00;;
33453;SDS011;39400;49.744;7.012;2023-05-16T16:14:03;8.05;;;2.03;;
33453;SDS011;39400;49.744;7.012;2023-05-16T16:16:28;6.05;;;1.40;;
33453;SDS011;39400;49.744;7.012;2023-05-16T16:18:53;5.72;;;2.03;;
33453;SDS011;39400;49.744;7.012;2023-05-16T16:21:19;11.73;;;1.88;;
33453;SDS011;39400;49.744;7.012;2023-05-16T16:23:44;3.05;;;1.10;;
33453;SDS011;39400;49.744;7.012;2023-05-16T16:26:09;7.97;;;1.23;;
33453;SDS011;39400;49.744;7.012;2023-05-16T16:28:35;3.95;;;1.35;;
33453;SDS011;39400;49.744;7.012;2023-05-16T16:31:00;12.63;;;1.52;;
33453;SDS011;39400;49.744;7.012;2023-05-16T16:33:25;7.93;;;1.80;;
33453;SDS011;39400;49.744;7.012;2023-05-16T16:35:51;4.68;;;1.40;;
33453;SDS011;39400;49.744;7.012;2023-05-16T16:38:16;7.05;;;2.15;;
33453;SDS011;39400;49.744;7.012;2023-05-16T16:40:41;4.65;;;1.20;;
33453;SDS011;39400;49.744;7.012;2023-05-16T16:43:07;7.28;;;1.67;;
33453;SDS011;39400;49.744;7.012;2023-05-16T16:45:32;9.15;;;1.70;;
33453;SDS011;39400;49.744;7.012;2023-05-16T16:47:57;5.70;;;1.45;;
33453;SDS011;39400;49.744;7.012;2023-05-16T16:50:23;7.45;;;1.58;;
33453;SDS011;39400;49.744;7.012;2023-05-16T16:52:48;4.95;;;1.30;;
33453;SDS011;39400;49.744;7.012;2023-05-16T16:55:13;8.52;;;1.15;;
33453;SDS011;39400;49.744;7.012;2023-05-16T16:57:42;7.43;;;1.63;;
33453;SDS011;39400;49.744;7.012;2023-05-16T17:00:08;2.97;;;1.50;;
33453;SDS011;39400;49.744;7.012;2023-05-16T17:02:34;5.63;;;1.40;;
33453;SDS011;39400;49.744;7.012;2023-05-16T17:05:00;8.55;;;2.03;;
33453;SDS011;39400;49.744;7.012;2023-05-16T17:07:25;7.22;;;1.75;;
33453;SDS011;39400;49.744;7.012;2023-05-16T17:09:50;4.75;;;1.40;;
33453;SDS011;39400;49.744;7.012;2023-05-16T17:12:15;7.50;;;1.02;;
33453;SDS011;39400;49.744;7.012;2023-05-16T17:14:41;5.30;;;1.15;;
33453;SDS011;39400;49.744;7.012;2023-05-16T17:17:06;8.88;;;1.67;;
33453;SDS011;39400;49.744;7.012;2023-05-16T17:19:32;6.05;;;1.38;;
33453;SDS011;39400;49.744;7.012;2023-05-16T17:21:57;5.65;;;1.40;;
33453;SDS011;39400;49.744;7.012;2023-05-16T17:24:22;7.35;;;1.00;;
33453;SDS011;39400;49.744;7.012;2023-05-16T17:26:48;2.38;;;1.02;;
33453;SDS011;39400;49.744;7.012;2023-05-16T17:29:13;18.58;;;1.85;;
33453;SDS011;39400;49.744;7.012;2023-05-16T17:31:38;6.78;;;1.48;;
33453;SDS011;39400;49.744;7.012;2023-05-16T17:34:04;3.75;;;1.13;;
33453;SDS011;39400;49.744;7.012;2023-05-16T17:36:29;9.57;;;2.10;;
33453;SDS011;39400;49.744;7.012;2023-05-16T17:38:54;4.20;;;1.23;;
33453;SDS011;39400;49.744;7.012;2023-05-16T17:41:20;3.28;;;1.08;;
33453;SDS011;39400;49.744;7.012;2023-05-16T17:43:45;12.80;;;1.40;;
33453;SDS011;39400;49.744;7.012;2023-05-16T17:46:11;2.58;;;1.08;;
33453;SDS011;39400;49.744;7.012;2023-05-16T17:48:36;5.25;;;1.38;;
33453;SDS011;39400;49.744;7.012;2023-05-16T17:51:01;6.57;;;1.35;;
33453;SDS011;39400;49.744;7.012;2023-05-16T17:53:27;8.95;;;2.08;;
33453;SDS011;39400;49.744;7.012;2023-05-16T17:55:52;5.30;;;1.40;;
33453;SDS011;39400;49.744;7.012;2023-05-16T17:58:17;6.57;;;1.55;;
33453;SDS011;39400;49.744;7.012;2023-05-16T18:00:43;4.15;;;1.70;;
33453;SDS011;39400;49.744;7.012;2023-05-16T18:03:09;10.98;;;1.85;;
33453;SDS011;39400;49.744;7.012;2023-05-16T18:05:34;8.60;;;1.38;;
33453;SDS011;39400;49.744;7.012;2023-05-16T18:07:59;4.18;;;1.38;;
33453;SDS011;39400;49.744;7.012;2023-05-16T18:10:25;7.10;;;1.67;;
33453;SDS011;39400;49.744;7.012;2023-05-16T18:12:50;7.72;;;1.33;;
33453;SDS011;39400;49.744;7.012;2023-05-16T18:15:15;3.83;;;1.52;;
33453;SDS011;39400;49.744;7.012;2023-05-16T18:17:41;7.47;;;2.25;;
33453;SDS011;39400;49.744;7.012;2023-05-16T18:20:06;11.10;;;2.05;;
33453;SDS011;39400;49.744;7.012;2023-05-16T18:22:32;5.93;;;1.77;;
33453;SDS011;39400;49.744;7.012;2023-05-16T18:24:57;6.70;;;1.52;;
33453;SDS011;39400;49.744;7.012;2023-05-16T18:27:22;8.15;;;1.50;;
33453;SDS011;39400;49.744;7.012;2023-05-16T18:29:48;6.68;;;1.38;;
33453;SDS011;39400;49.744;7.012;2023-05-16T18:32:13;3.95;;;1.67;;
33453;SDS011;39400;49.744;7.012;2023-05-16T18:34:38;5.30;;;1.40;;
33453;SDS011;39400;49.744;7.012;2023-05-16T18:37:04;11.63;;;1.88;;
33453;SDS011;39400;49.744;7.012;2023-05-16T18:39:29;7.70;;;1.33;;
33453;SDS011;39400;49.744;7.012;2023-05-16T18:41:54;5.65;;;1.60;;
33453;SDS011;39400;49.744;7.012;2023-05-16T18:44:20;6.32;;;1.45;;
33453;SDS011;39400;49.744;7.012;2023-05-16T18:46:45;5.10;;;1.45;;
33453;SDS011;39400;49.744;7.012;2023-05-16T18:49:11;14.48;;;2.85;;
33453;SDS011;39400;49.744;7.012;2023-05-16T18:51:37;6.30;;;1.30;;
33453;SDS011;39400;49.744;7.012;2023-05-16T18:54:03;6.10;;;1.95;;
33453;SDS011;39400;49.744;7.012;2023-05-16T18:56:28;8.57;;;2.78;;
33453;SDS011;39400;49.744;7.012;2023-05-16T18:58:53;6.72;;;1.90;;
33453;SDS011;39400;49.744;7.012;2023-05-16T19:01:18;5.45;;;1.85;;
33453;SDS011;39400;49.744;7.012;2023-05-16T19:03:44;8.80;;;1.77;;
33453;SDS011;39400;49.744;7.012;2023-05-16T19:06:09;7.63;;;1.67;;
33453;SDS011;39400;49.744;7.012;2023-05-16T19:08:34;5.82;;;1.80;;
33453;SDS011;39400;49.744;7.012;2023-05-16T19:11:00;9.80;;;2.22;;
33453;SDS011;39400;49.744;7.012;2023-05-16T19:13:25;6.10;;;1.42;;
33453;SDS011;39400;49.744;7.012;2023-05-16T19:15:50;10.93;;;1.55;;
33453;SDS011;39400;49.744;7.012;2023-05-16T19:18:15;9.05;;;2.20;;
33453;SDS011;39400;49.744;7.012;2023-05-16T19:20:41;8.80;;;1.58;;
33453;SDS011;39400;49.744;7.012;2023-05-16T19:23:06;2.60;;;1.60;;
33453;SDS011;39400;49.744;7.012;2023-05-16T19:25:31;7.18;;;2.30;;
33453;SDS011;39400;49.744;7.012;2023-05-16T19:27:57;18.83;;;3.30;;
33453;SDS011;39400;49.744;7.012;2023-05-16T19:30:22;9.23;;;2.17;;
33453;SDS011;39400;49.744;7.012;2023-05-16T19:32:47;10.30;;;1.88;;
33453;SDS011;39400;49.744;7.012;2023-05-16T19:35:13;11.38;;;2.03;;
33453;SDS011;39400;49.744;7.012;2023-05-16T19:37:38;10.25;;;2.22;;
33453;SDS011;39400;49.744;7.012;2023-05-16T19:40:03;7.32;;;1.88;;
33453;SDS011;39400;49.744;7.012;2023-05-16T19:42:29;7.40;;;2.20;;
33453;SDS011;39400;49.744;7.012;2023-05-16T19:44:54;4.65;;;1.50;;
33453;SDS011;39400;49.744;7.012;2023-05-16T19:47:19;6.85;;;1.92;;
33453;SDS011;39400;49.744;7.012;2023-05-16T19:49:45;6.88;;;2.00;;
33453;SDS011;39400;49.744;7.012;2023-05-16T19:52:10;4.70;;;2.05;;
33453;SDS011;39400;49.744;7.012;2023-05-16T19:54:35;8.43;;;2.30;;
33453;SDS011;39400;49.744;7.012;2023-05-16T19:57:01;7.13;;;1.70;;
33453;SDS011;39400;49.744;7.012;2023-05-16T19:59:26;6.03;;;2.15;;
33453;SDS011;39400;49.744;7.012;2023-05-16T20:01:51;8.32;;;2.20;;
33453;SDS011;39400;49.744;7.012;2023-05-16T20:04:17;6.68;;;2.28;;
33453;SDS011;39400;49.744;7.012;2023-05-16T20:06:42;5.82;;;2.28;;
33453;SDS011;39400;49.744;7.012;2023-05-16T20:09:07;5.75;;;2.22;;
33453;SDS011;39400;49.744;7.012;2023-05-16T20:11:32;7.18;;;1.95;;
33453;SDS011;39400;49.744;7.012;2023-05-16T20:13:58;4.72;;;1.92;;
33453;SDS011;39400;49.744;7.012;2023-05-16T20:16:25;11.55;;;1.77;;
33453;SDS011;39400;49.744;7.012;2023-05-16T20:18:50;7.85;;;2.40;;
33453;SDS011;39400;49.744;7.012;2023-05-16T20:21:16;7.72;;;1.80;;
33453;SDS011;39400;49.744;7.012;2023-05-16T20:23:41;9.38;;;2.20;;
33453;SDS011;39400;49.744;7.012;2023-05-16T20:26:07;6.00;;;1.90;;
33453;SDS011;39400;49.744;7.012;2023-05-16T20:28:32;8.68;;;1.65;;
33453;SDS011;39400;49.744;7.012;2023-05-16T20:30:57;9.48;;;1.95;;
33453;SDS011;39400;49.744;7.012;2023-05-16T20:33:23;5.50;;;1.88;;
33453;SDS011;39400;49.744;7.012;2023-05-16T20:35:48;7.43;;;2.25;;
33453;SDS011;39400;49.744;7.012;2023-05-16T20:38:13;13.20;;;3.05;;
33453;SDS011;39400;49.744;7.012;2023-05-16T20:40:38;17.00;;;2.58;;
33453;SDS011;39400;49.744;7.012;2023-05-16T20:43:04;10.80;;;2.40;;
33453;SDS011;39400;49.744;7.012;2023-05-16T20:45:29;9.73;;;2.72;;
33453;SDS011;39400;49.744;7.012;2023-05-16T20:47:54;10.25;;;2.42;;